Time;durP1;ratioP1;P1;durP2;ratioP2;P2;SDS_P1;SDS_P2;PMS_P1;PMS_P2;Temp;Humidity;BMP_temperature;BMP_pressure;BME280_temperature;BME280_humidity;BME280_pressure;Samples;Min_cycle;Max_cycle;Signal;HPM_P1;HPM_P2
2021/05/30 00:01:05;;;;;;;13.75;6.03;;;;;;;;;;10327430;28;20033;-64
2021/05/30 00:06:02;;;;;;;13.37;6.90;;;;;;;;;;10330669;28;20033;-64
2021/05/30 00:11:00;;;;;;;13.30;7.37;;;;;;;;;;10323222;28;20174;-64
2021/05/30 00:15:57;;;;;;;13.33;7.67;;;;;;;;;;10339110;28;20600;-64
2021/05/30 00:20:55;;;;;;;17.53;7.80;;;;;;;;;;10338950;28;20036;-61
2021/05/30 00:25:52;;;;;;;20.30;7.77;;;;;;;;;;10339933;28;20040;-61
2021/05/30 00:30:50;;;;;;;11.63;6.40;;;;;;;;;;10331094;28;20037;-64
2021/05/30 00:35:49;;;;;;;3.75;1.90;;;;;;;;;;10334233;28;20148;-65
2021/05/30 00:40:46;;;;;;;9.13;4.07;;;;;;;;;;10332152;28;20542;-64
2021/05/30 00:45:45;;;;;;;6.03;3.20;;;;;;;;;;10329216;28;20055;-63
2021/05/30 00:50:43;;;;;;;6.18;3.47;;;;;;;;;;10327068;28;20059;-64
2021/05/30 00:55:41;;;;;;;0.90;0.70;;;;;;;;;;10325180;28;20055;-65
2021/05/30 01:00:39;;;;;;;5.80;2.23;;;;;;;;;;10318957;28;20123;-64
2021/05/30 01:05:36;;;;;;;7.70;4.82;;;;;;;;;;10331133;28;20045;-63
2021/05/30 01:10:36;;;;;;;10.37;5.10;;;;;;;;;;10327026;28;20479;-63
2021/05/30 01:15:33;;;;;;;11.52;4.60;;;;;;;;;;10315569;28;20040;-64
2021/05/30 01:20:31;;;;;;;11.10;5.23;;;;;;;;;;10336245;28;20027;-64
2021/05/30 01:25:28;;;;;;;12.93;6.40;;;;;;;;;;10328142;28;20037;-64
2021/05/30 01:30:25;;;;;;;12.03;7.13;;;;;;;;;;10323441;28;20399;-64
2021/05/30 01:35:23;;;;;;;16.00;6.63;;;;;;;;;;10323575;28;20060;-64
2021/05/30 01:40:21;;;;;;;10.37;5.30;;;;;;;;;;10318828;28;20071;-64
2021/05/30 01:45:19;;;;;;;15.43;6.90;;;;;;;;;;10326134;28;20128;-65
2021/05/30 01:50:18;;;;;;;14.15;5.10;;;;;;;;;;10324591;28;20018;-64
2021/05/30 01:55:22;;;;;;;12.65;6.22;;;;;;;;;;10342641;28;20018;-64
2021/05/30 02:00:20;;;;;;;12.32;6.00;;;;;;;;;;10341819;28;20017;-65
2021/05/30 02:05:18;;;;;;;14.10;6.75;;;;;;;;;;10342576;28;20021;-65
2021/05/30 02:10:16;;;;;;;13.47;6.90;;;;;;;;;;10347033;28;20019;-65
2021/05/30 02:15:14;;;;;;;3.17;1.95;;;;;;;;;;10337738;28;20036;-65
2021/05/30 02:20:12;;;;;;;0.55;0.55;;;;;;;;;;10343253;28;20459;-64
2021/05/30 02:25:10;;;;;;;2.60;1.35;;;;;;;;;;10334420;28;20525;-65
2021/05/30 02:30:08;;;;;;;0.50;0.50;;;;;;;;;;10344362;28;20518;-65
2021/05/30 02:35:06;;;;;;;0.43;0.43;;;;;;;;;;10333698;28;20052;-65
2021/05/30 02:40:04;;;;;;;6.43;1.47;;;;;;;;;;10346083;28;20859;-65
2021/05/30 02:45:03;;;;;;;9.57;3.15;;;;;;;;;;10349109;28;20037;-64
2021/05/30 02:50:00;;;;;;;4.22;2.15;;;;;;;;;;10347858;28;20121;-66
2021/05/30 02:54:58;;;;;;;2.20;1.80;;;;;;;;;;10348958;28;20132;-65
2021/05/30 02:59:55;;;;;;;6.50;2.60;;;;;;;;;;10349290;28;20031;-64
2021/05/30 03:04:53;;;;;;;1.63;1.23;;;;;;;;;;10348378;28;20037;-65
2021/05/30 03:09:50;;;;;;;3.63;1.67;;;;;;;;;;10348415;28;20047;-66
2021/05/30 03:14:48;;;;;;;4.60;2.00;;;;;;;;;;10348155;28;20449;-66
2021/05/30 03:19:45;;;;;;;1.20;1.20;;;;;;;;;;10348521;28;20033;-65
2021/05/30 03:24:42;;;;;;;3.57;1.40;;;;;;;;;;10349437;28;20041;-65
2021/05/30 03:29:40;;;;;;;1.63;1.43;;;;;;;;;;10345108;28;20039;-64
2021/05/30 03:34:37;;;;;;;3.23;1.97;;;;;;;;;;10347517;28;20037;-65
2021/05/30 03:39:38;;;;;;;2.57;0.87;;;;;;;;;;10347357;28;20055;-64
2021/05/30 03:44:36;;;;;;;1.10;1.00;;;;;;;;;;10330054;28;20474;-64
2021/05/30 03:49:33;;;;;;;8.07;1.63;;;;;;;;;;10347323;28;20036;-64
2021/05/30 03:54:30;;;;;;;4.97;2.03;;;;;;;;;;10346965;28;20068;-65
2021/05/30 03:59:28;;;;;;;2.27;1.27;;;;;;;;;;10346251;28;20072;-64
2021/05/30 04:04:26;;;;;;;3.03;1.70;;;;;;;;;;10346536;28;20044;-62
2021/05/30 04:09:23;;;;;;;8.97;2.60;;;;;;;;;;10347098;28;20513;-63
2021/05/30 04:14:20;;;;;;;4.13;1.77;;;;;;;;;;10345126;28;20106;-63
2021/05/30 04:19:18;;;;;;;4.47;2.03;;;;;;;;;;10345494;28;20037;-63
2021/05/30 04:24:15;;;;;;;17.10;8.07;;;;;;;;;;10349664;28;20041;-63
2021/05/30 04:29:13;;;;;;;16.67;8.00;;;;;;;;;;10345474;28;20100;-64
2021/05/30 04:34:10;;;;;;;5.70;2.83;;;;;;;;;;10346852;28;20461;-64
2021/05/30 04:39:08;;;;;;;3.80;1.60;;;;;;;;;;10347182;28;20091;-65
2021/05/30 04:44:05;;;;;;;12.80;6.30;;;;;;;;;;10344551;28;20041;-63
2021/05/30 04:49:02;;;;;;;7.90;4.90;;;;;;;;;;10344624;28;20036;-64
2021/05/30 04:54:00;;;;;;;14.03;5.83;;;;;;;;;;10345428;28;20037;-63
2021/05/30 04:58:57;;;;;;;1.97;1.17;;;;;;;;;;10341206;28;20037;-63
2021/05/30 05:03:55;;;;;;;10.13;2.70;;;;;;;;;;10345293;28;20036;-63
2021/05/30 05:08:53;;;;;;;5.73;3.03;;;;;;;;;;10343829;28;20033;-63
2021/05/30 05:13:50;;;;;;;;;;;;;;;;;;10344354;28;20040;-63
2021/05/30 05:18:48;;;;;;;1.73;1.33;;;;;;;;;;10344692;28;19917;-63
2021/05/30 05:23:46;;;;;;;1.57;1.47;;;;;;;;;;10344769;28;20033;-64
2021/05/30 05:28:43;;;;;;;7.90;2.90;;;;;;;;;;10358498;28;20112;-65
2021/05/30 05:33:42;;;;;;;2.50;2.30;;;;;;;;;;10357272;28;20104;-64
2021/05/30 05:38:40;;;;;;;3.92;2.05;;;;;;;;;;10357288;28;20029;-64
2021/05/30 05:43:37;;;;;;;4.93;2.30;;;;;;;;;;10357366;28;20039;-64
2021/05/30 05:48:34;;;;;;;3.10;0.80;;;;;;;;;;10356920;28;20541;-64
2021/05/30 05:53:32;;;;;;;6.43;3.73;;;;;;;;;;10321528;28;20044;-64
2021/05/30 05:58:29;;;;;;;6.73;4.00;;;;;;;;;;10320904;28;20454;-65
2021/05/30 06:03:27;;;;;;;11.30;3.70;;;;;;;;;;10323590;28;20327;-64
2021/05/30 06:08:24;;;;;;;10.77;3.73;;;;;;;;;;10358974;28;20044;-65
2021/05/30 06:13:22;;;;;;;8.20;4.03;;;;;;;;;;10328877;28;20040;-62
2021/05/30 06:18:22;;;;;;;8.63;4.40;;;;;;;;;;10332796;28;20045;-64
2021/05/30 06:23:20;;;;;;;9.73;4.35;;;;;;;;;;10332110;28;20083;-65
2021/05/30 06:28:17;;;;;;;6.83;3.50;;;;;;;;;;10332546;28;20029;-65
2021/05/30 06:33:14;;;;;;;6.17;3.17;;;;;;;;;;10331431;28;20510;-65
2021/05/30 06:38:12;;;;;;;7.80;3.63;;;;;;;;;;10317555;28;20120;-65
2021/05/30 06:43:10;;;;;;;8.37;3.53;;;;;;;;;;10325663;28;20041;-63
2021/05/30 06:48:08;;;;;;;5.05;2.75;;;;;;;;;;10335165;28;21145;-62
2021/05/30 06:53:05;;;;;;;6.80;3.43;;;;;;;;;;10373162;28;20150;-64
2021/05/30 06:58:03;;;;;;;3.53;2.13;;;;;;;;;;10329102;28;20037;-64
2021/05/30 07:03:00;;;;;;;4.53;2.37;;;;;;;;;;10323405;28;20033;-64
2021/05/30 07:07:59;;;;;;;3.40;2.53;;;;;;;;;;10327787;28;20037;-62
2021/05/30 07:12:56;;;;;;;4.78;2.75;;;;;;;;;;10304563;28;20116;-64
2021/05/30 07:17:55;;;;;;;7.73;2.10;;;;;;;;;;10315310;28;20119;-64
2021/05/30 07:22:52;;;;;;;5.47;2.95;;;;;;;;;;10330025;28;20398;-66
2021/05/30 07:27:51;;;;;;;6.13;2.63;;;;;;;;;;10306601;28;20048;-65
2021/05/30 07:32:49;;;;;;;3.95;2.17;;;;;;;;;;10327120;28;20033;-63
2021/05/30 07:37:46;;;;;;;4.67;2.77;;;;;;;;;;10313327;28;20042;-64
2021/05/30 07:42:46;;;;;;;6.80;2.87;;;;;;;;;;10314831;28;20036;-65
2021/05/30 07:47:44;;;;;;;8.27;3.00;;;;;;;;;;10321677;28;20056;-65
2021/05/30 07:52:41;;;;;;;4.07;1.92;;;;;;;;;;10309907;28;20040;-63
2021/05/30 07:57:39;;;;;;;4.47;2.47;;;;;;;;;;10322420;28;20059;-64
2021/05/30 08:02:36;;;;;;;11.83;2.57;;;;;;;;;;10324199;28;20044;-64
2021/05/30 08:07:34;;;;;;;6.77;2.37;;;;;;;;;;10328912;28;20487;-63
2021/05/30 08:12:32;;;;;;;1.60;1.13;;;;;;;;;;10319639;28;20445;-62
2021/05/30 08:17:29;;;;;;;1.60;1.17;;;;;;;;;;10315625;28;20124;-63
2021/05/30 08:22:27;;;;;;;4.63;2.30;;;;;;;;;;10323684;28;20693;-61
2021/05/30 08:27:24;;;;;;;7.33;3.27;;;;;;;;;;10319410;28;20094;-64
2021/05/30 08:32:22;;;;;;;7.03;2.90;;;;;;;;;;10314875;28;20138;-63
2021/05/30 08:37:19;;;;;;;3.87;1.93;;;;;;;;;;10315458;28;20518;-63
2021/05/30 08:42:21;;;;;;;3.30;1.93;;;;;;;;;;10319936;28;20056;-63
2021/05/30 08:47:22;;;;;;;5.43;2.85;;;;;;;;;;10323760;28;20040;-63
2021/05/30 08:52:19;;;;;;;4.18;2.25;;;;;;;;;;10329287;28;20045;-64
2021/05/30 08:57:16;;;;;;;2.13;1.90;;;;;;;;;;10330167;28;20041;-63
2021/05/30 09:02:17;;;;;;;2.70;2.50;;;;;;;;;;10328688;28;20037;-62
2021/05/30 09:07:14;;;;;;;0.90;0.88;;;;;;;;;;10339478;28;20478;-64
2021/05/30 09:12:28;;;;;;;1.90;1.60;;;;;;;;;;10340623;28;20398;-64
2021/05/30 09:17:26;;;;;;;3.35;2.35;;;;;;;;;;10330045;28;20030;-63
2021/05/30 09:22:23;;;;;;;1.92;1.83;;;;;;;;;;10302868;28;20387;-65
2021/05/30 09:27:22;;;;;;;2.10;1.47;;;;;;;;;;10312213;28;20826;-64
2021/05/30 09:32:20;;;;;;;3.90;1.67;;;;;;;;;;10321707;28;20086;-63
2021/05/30 09:37:17;;;;;;;2.87;1.30;;;;;;;;;;10320706;28;20555;-63
2021/05/30 09:42:25;;;;;;;2.03;1.83;;;;;;;;;;10332222;28;20383;-62
2021/05/30 09:47:39;;;;;;;7.00;2.20;;;;;;;;;;10333789;28;20052;-62
2021/05/30 09:52:36;;;;;;;3.88;1.52;;;;;;;;;;10330364;28;20032;-63
2021/05/30 09:57:34;;;;;;;6.87;2.27;;;;;;;;;;10313007;28;20044;-62
2021/05/30 10:02:34;;;;;;;1.67;0.97;;;;;;;;;;10337405;28;20486;-63
2021/05/30 10:07:31;;;;;;;2.58;1.27;;;;;;;;;;10311550;28;20058;-63
2021/05/30 10:12:30;;;;;;;2.63;1.30;;;;;;;;;;10332837;28;20379;-62
2021/05/30 10:17:27;;;;;;;;;;;;;;;;;;10340485;28;20971;-63
2021/05/30 10:22:25;;;;;;;3.13;1.23;;;;;;;;;;10331817;28;19928;-63
2021/05/30 10:27:30;;;;;;;4.50;2.33;;;;;;;;;;10338785;28;20502;-62
2021/05/30 10:32:27;;;;;;;1.52;1.42;;;;;;;;;;10323906;28;20045;-63
2021/05/30 10:37:25;;;;;;;3.43;2.47;;;;;;;;;;10333997;28;20502;-64
2021/05/30 10:42:26;;;;;;;4.80;1.70;;;;;;;;;;10331379;28;20404;-64
2021/05/30 10:47:46;;;;;;;3.17;2.03;;;;;;;;;;10294066;28;20044;-65
2021/05/30 10:52:45;;;;;;;2.97;1.67;;;;;;;;;;10313431;28;20047;-64
2021/05/30 10:57:43;;;;;;;2.85;1.45;;;;;;;;;;10315980;28;20174;-64
2021/05/30 11:02:59;;;;;;;3.13;2.13;;;;;;;;;;10307018;28;20099;-64
2021/05/30 11:07:57;;;;;;;6.18;1.85;;;;;;;;;;10324389;28;20033;-64
2021/05/30 11:12:55;;;;;;;3.77;2.40;;;;;;;;;;10312967;28;20086;-64
2021/05/30 11:17:53;;;;;;;;;;;;;;;;;;10335541;28;20458;-64
2021/05/30 11:22:55;;;;;;;4.30;1.73;;;;;;;;;;10317036;28;20293;-64
2021/05/30 11:27:55;;;;;;;1.42;1.10;;;;;;;;;;10312977;28;20469;-65
2021/05/30 11:32:53;;;;;;;3.80;1.55;;;;;;;;;;10335957;28;20068;-65
2021/05/30 11:37:50;;;;;;;5.95;3.13;;;;;;;;;;10333811;28;20071;-66
2021/05/30 11:42:51;;;;;;;14.73;4.17;;;;;;;;;;10332644;28;20584;-65
2021/05/30 11:48:00;;;;;;;8.40;4.00;;;;;;;;;;10315479;28;20459;-65
2021/05/30 11:52:57;;;;;;;5.60;2.60;;;;;;;;;;10328152;28;20136;-64
2021/05/30 11:57:55;;;;;;;7.17;3.23;;;;;;;;;;10314664;28;20036;-63
2021/05/30 12:02:53;;;;;;;4.13;2.07;;;;;;;;;;10324766;28;20120;-63
2021/05/30 12:07:51;;;;;;;10.50;3.88;;;;;;;;;;10322875;28;20113;-63
2021/05/30 12:12:48;;;;;;;8.40;2.47;;;;;;;;;;10329764;28;20214;-64
2021/05/30 12:17:55;;;;;;;13.27;3.07;;;;;;;;;;10306561;28;20047;-63
2021/05/30 12:23:04;;;;;;;3.30;1.27;;;;;;;;;;10318931;28;20553;-63
2021/05/30 12:28:02;;;;;;;4.32;2.00;;;;;;;;;;10297310;28;20064;-63
2021/05/30 12:33:00;;;;;;;2.45;1.45;;;;;;;;;;10315026;28;20466;-65
2021/05/30 12:37:58;;;;;;;;;;;;;;;;;;10308766;28;20092;-65
2021/05/30 12:42:58;;;;;;;8.68;4.45;;;;;;;;;;10306170;28;20015;-65
2021/05/30 12:47:56;;;;;;;13.02;6.05;;;;;;;;;;10318742;28;20060;-64
2021/05/30 12:52:54;;;;;;;5.63;2.03;;;;;;;;;;10316652;28;20037;-63
2021/05/30 12:57:54;;;;;;;;;;;;;;;;;;10312405;28;20037;-63
2021/05/30 13:03:02;;;;;;;7.18;3.22;;;;;;;;;;10348544;28;19992;-62
2021/05/30 13:08:12;;;;;;;6.32;2.17;;;;;;;;;;10335772;28;20117;-64
2021/05/30 13:13:23;;;;;;;7.25;2.92;;;;;;;;;;10316379;28;20037;-64
2021/05/30 13:18:20;;;;;;;9.15;3.80;;;;;;;;;;10317037;28;20124;-63
2021/05/30 13:23:24;;;;;;;6.07;3.67;;;;;;;;;;10304323;28;20124;-64
2021/05/30 13:28:22;;;;;;;10.95;4.30;;;;;;;;;;10311802;28;20052;-65
2021/05/30 13:33:20;;;;;;;4.75;1.65;;;;;;;;;;10322512;28;20049;-64
2021/05/30 13:38:17;;;;;;;;;;;;;;;;;;10322492;28;20040;-64
2021/05/30 13:43:15;;;;;;;11.40;3.10;;;;;;;;;;10319503;28;19917;-65
2021/05/30 13:48:12;;;;;;;4.97;3.47;;;;;;;;;;10320406;28;20087;-64
2021/05/30 13:53:10;;;;;;;5.45;2.72;;;;;;;;;;10330544;28;20431;-65
2021/05/30 13:58:07;;;;;;;2.10;1.48;;;;;;;;;;10320427;28;20045;-64
2021/05/30 14:03:05;;;;;;;11.10;3.93;;;;;;;;;;10316628;28;20045;-65
2021/05/30 14:08:02;;;;;;;6.13;2.20;;;;;;;;;;10339808;28;20047;-65
2021/05/30 14:13:01;;;;;;;1.97;1.33;;;;;;;;;;10317655;28;20069;-64
2021/05/30 14:17:59;;;;;;;6.65;2.67;;;;;;;;;;10317084;28;20029;-64
2021/05/30 14:22:56;;;;;;;7.37;4.50;;;;;;;;;;10317124;28;20045;-64
2021/05/30 14:28:00;;;;;;;12.93;6.27;;;;;;;;;;10332016;28;20685;-64
2021/05/30 14:32:58;;;;;;;15.88;7.55;;;;;;;;;;10345780;28;20119;-64
2021/05/30 14:37:55;;;;;;;10.05;5.38;;;;;;;;;;10340258;28;20108;-63
2021/05/30 14:42:52;;;;;;;;;;;;;;;;;;10329355;28;20035;-62
2021/05/30 14:47:50;;;;;;;4.93;4.30;;;;;;;;;;10338619;28;19927;-62
2021/05/30 14:52:48;;;;;;;;;;;;;;;;;;10348927;28;20033;-62
2021/05/30 14:57:46;;;;;;;10.23;5.05;;;;;;;;;;10338818;28;19920;-62
2021/05/30 15:02:44;;;;;;;7.97;3.92;;;;;;;;;;10348777;28;20041;-63
2021/05/30 15:07:41;;;;;;;;;;;;;;;;;;10338015;28;20039;-62
2021/05/30 15:12:38;;;;;;;9.03;3.37;;;;;;;;;;10326855;28;19921;-63
2021/05/30 15:17:36;;;;;;;;;;;;;;;;;;10314581;28;20098;-64
2021/05/30 15:22:33;;;;;;;4.47;2.90;;;;;;;;;;10310519;28;19935;-63
2021/05/30 15:27:30;;;;;;;;;;;;;;;;;;10319001;28;20056;-61
2021/05/30 15:32:28;;;;;;;4.53;1.98;;;;;;;;;;10323666;28;19924;-63
2021/05/30 15:37:25;;;;;;;;;;;;;;;;;;10307192;28;20032;-63
2021/05/30 15:42:23;;;;;;;3.05;1.67;;;;;;;;;;10312318;28;20418;-62
2021/05/30 15:47:20;;;;;;;7.30;2.90;;;;;;;;;;10311105;28;20513;-63
2021/05/30 15:52:18;;;;;;;3.70;1.38;;;;;;;;;;10330460;28;20486;-65
2021/05/30 15:57:15;;;;;;;;;;;;;;;;;;10316656;28;20036;-62
2021/05/30 16:02:12;;;;;;;7.32;2.33;;;;;;;;;;10307661;28;19970;-63
2021/05/30 16:07:10;;;;;;;;;;;;;;;;;;10321980;28;20383;-63
2021/05/30 16:12:07;;;;;;;9.23;3.78;;;;;;;;;;10310229;28;20491;-62
2021/05/30 16:17:05;;;;;;;;;;;;;;;;;;10303014;28;20217;-63
2021/05/30 16:22:03;;;;;;;11.00;2.60;;;;;;;;;;10313509;28;20086;-63
2021/05/30 16:27:00;;;;;;;;;;;;;;;;;;10295421;28;20740;-65
2021/05/30 16:31:58;;;;;;;2.33;1.05;;;;;;;;;;10319709;28;20421;-65
2021/05/30 16:36:55;;;;;;;;;;;;;;;;;;10325682;28;20067;-66
2021/05/30 16:41:52;;;;;;;6.07;2.42;;;;;;;;;;10318632;28;19920;-65
2021/05/30 16:46:50;;;;;;;;;;;;;;;;;;10308894;28;20175;-65
2021/05/30 16:51:47;;;;;;;2.30;1.58;;;;;;;;;;10308677;28;20340;-65
2021/05/30 16:56:44;;;;;;;;;;;;;;;;;;10292439;28;20037;-64
2021/05/30 17:01:46;;;;;;;3.38;2.67;;;;;;;;;;10309562;28;20424;-65
2021/05/30 17:06:44;;;;;;;5.07;2.17;;;;;;;;;;10297266;28;20040;-65
2021/05/30 17:11:43;;;;;;;;;;;;;;;;;;10314196;28;20612;-65
2021/05/30 17:16:41;;;;;;;4.30;2.55;;;;;;;;;;10314515;28;19924;-64
2021/05/30 17:21:38;;;;;;;;;;;;;;;;;;10323536;28;20483;-64
2021/05/30 17:26:36;;;;;;;6.72;2.50;;;;;;;;;;10313124;28;19912;-64
2021/05/30 17:31:34;;;;;;;;;;;;;;;;;;10313904;28;20072;-65
2021/05/30 17:36:31;;;;;;;2.17;1.75;;;;;;;;;;10311547;28;20198;-64
2021/05/30 17:41:28;;;;;;;;;;;;;;;;;;10319615;28;20037;-64
2021/05/30 17:46:26;;;;;;;8.77;1.73;;;;;;;;;;10297636;28;19916;-64
2021/05/30 17:51:23;;;;;;;;;;;;;;;;;;10305722;28;20608;-64
2021/05/30 17:56:20;;;;;;;1.33;0.95;;;;;;;;;;10302601;28;20287;-65
2021/05/30 18:01:19;;;;;;;5.38;2.03;;;;;;;;;;10303128;28;20495;-64
2021/05/30 18:06:18;;;;;;;5.93;2.10;;;;;;;;;;10307266;28;20133;-62
2021/05/30 18:11:16;;;;;;;2.65;2.22;;;;;;;;;;10346997;28;20037;-63
2021/05/30 18:16:13;;;;;;;4.93;2.40;;;;;;;;;;10311506;28;20053;-63
2021/05/30 18:21:11;;;;;;;4.90;1.63;;;;;;;;;;10305197;28;20333;-63
2021/05/30 18:26:08;;;;;;;5.87;2.47;;;;;;;;;;10315985;28;20040;-64
2021/05/30 18:31:06;;;;;;;4.10;2.80;;;;;;;;;;10313283;28;20026;-63
2021/05/30 18:36:06;;;;;;;7.93;2.83;;;;;;;;;;10322084;28;20458;-63
2021/05/30 18:41:05;;;;;;;4.30;1.88;;;;;;;;;;10316698;28;20055;-64
2021/05/30 18:46:02;;;;;;;6.85;2.53;;;;;;;;;;10317488;28;20666;-65
2021/05/30 18:56:15;;;;;;;5.15;2.60;;;;;;;;;;10317366;28;20044;-64
2021/05/30 19:01:14;;;;;;;4.63;2.63;;;;;;;;;;10312272;28;20037;-63
2021/05/30 19:06:12;;;;;;;6.13;2.85;;;;;;;;;;10314909;28;20036;-64
2021/05/30 19:11:10;;;;;;;6.38;3.05;;;;;;;;;;10324148;28;20367;-64
2021/05/30 19:16:08;;;;;;;3.27;2.10;;;;;;;;;;10320445;28;20039;-64
2021/05/30 19:21:08;;;;;;;5.40;2.72;;;;;;;;;;10313903;28;20037;-64
2021/05/30 19:26:05;;;;;;;5.13;1.58;;;;;;;;;;10321219;28;20514;-63
2021/05/30 19:31:04;;;;;;;4.00;2.13;;;;;;;;;;10321983;28;20066;-64
2021/05/30 19:36:02;;;;;;;2.50;1.90;;;;;;;;;;10340891;28;20131;-65
2021/05/30 19:40:59;;;;;;;4.88;2.55;;;;;;;;;;10315337;28;20461;-66
2021/05/30 19:45:57;;;;;;;2.90;1.93;;;;;;;;;;10329473;28;20036;-66
2021/05/30 19:50:54;;;;;;;4.70;2.20;;;;;;;;;;10318244;28;20520;-66
2021/05/30 19:55:53;;;;;;;2.83;1.93;;;;;;;;;;10309804;28;20402;-65
2021/05/30 20:00:51;;;;;;;5.10;2.15;;;;;;;;;;10295934;28;20451;-65
2021/05/30 20:05:49;;;;;;;2.03;1.47;;;;;;;;;;10305142;28;20041;-65
2021/05/30 20:10:47;;;;;;;2.58;2.05;;;;;;;;;;10312220;28;20496;-64
2021/05/30 20:15:45;;;;;;;1.85;1.67;;;;;;;;;;10322511;28;20076;-64
2021/05/30 20:20:42;;;;;;;7.10;2.30;;;;;;;;;;10328753;28;20071;-65
2021/05/30 20:25:43;;;;;;;2.97;2.07;;;;;;;;;;10314825;28;20060;-65
2021/05/30 20:30:42;;;;;;;6.90;2.22;;;;;;;;;;10312521;28;20600;-66
2021/05/30 20:35:40;;;;;;;5.70;2.47;;;;;;;;;;10317879;28;20135;-65
2021/05/30 20:40:38;;;;;;;2.97;1.52;;;;;;;;;;10315657;28;20041;-66
2021/05/30 20:45:36;;;;;;;2.00;1.88;;;;;;;;;;10313045;28;20063;-65
2021/05/30 20:50:36;;;;;;;14.15;7.05;;;;;;;;;;10308381;28;20133;-65
2021/05/30 20:55:33;;;;;;;14.00;8.20;;;;;;;;;;10309753;28;20083;-65
2021/05/30 21:00:31;;;;;;;12.17;7.37;;;;;;;;;;10301624;28;20489;-65
2021/05/30 21:05:28;;;;;;;11.33;7.57;;;;;;;;;;10315782;28;20051;-65
2021/05/30 21:10:25;;;;;;;18.67;8.23;;;;;;;;;;10314370;28;20055;-65
2021/05/30 21:15:23;;;;;;;13.57;6.90;;;;;;;;;;10321551;28;20449;-66
2021/05/30 21:20:20;;;;;;;14.87;7.87;;;;;;;;;;10323482;28;20049;-65
2021/05/30 21:25:18;;;;;;;16.63;8.43;;;;;;;;;;10293896;28;20048;-64
2021/05/30 21:30:15;;;;;;;15.80;7.77;;;;;;;;;;10322148;28;20563;-65
2021/05/30 21:35:13;;;;;;;14.70;7.97;;;;;;;;;;10307491;28;20502;-65
2021/05/30 21:40:12;;;;;;;13.50;7.30;;;;;;;;;;10311898;28;20248;-64
2021/05/30 21:45:10;;;;;;;14.15;7.93;;;;;;;;;;10310161;28;20038;-64
2021/05/30 21:50:07;;;;;;;15.47;6.37;;;;;;;;;;10308136;28;20041;-63
2021/05/30 21:55:05;;;;;;;13.07;5.53;;;;;;;;;;10315714;28;20034;-65
2021/05/30 22:00:11;;;;;;;9.00;6.07;;;;;;;;;;10319187;28;20051;-65
2021/05/30 22:05:10;;;;;;;17.50;6.80;;;;;;;;;;10311694;28;20052;-65
2021/05/30 22:10:08;;;;;;;12.18;5.40;;;;;;;;;;10328748;28;20041;-64
2021/05/30 22:15:13;;;;;;;14.32;6.43;;;;;;;;;;10328922;28;20033;-63
2021/05/30 22:20:10;;;;;;;5.93;4.00;;;;;;;;;;10321939;28;20038;-63
2021/05/30 22:25:08;;;;;;;14.90;6.47;;;;;;;;;;10329730;28;20052;-63
2021/05/30 22:30:06;;;;;;;12.20;6.33;;;;;;;;;;10295400;28;20264;-63
2021/05/30 22:35:06;;;;;;;13.03;5.77;;;;;;;;;;10311822;28;20045;-64
2021/05/30 22:40:03;;;;;;;11.05;6.75;;;;;;;;;;10348776;28;20097;-63
2021/05/30 22:45:01;;;;;;;14.30;6.17;;;;;;;;;;10316900;28;20093;-65
2021/05/30 22:49:58;;;;;;;12.07;5.97;;;;;;;;;;10312137;28;20068;-65
2021/05/30 22:54:55;;;;;;;9.93;3.80;;;;;;;;;;10310711;28;20041;-64
2021/05/30 22:59:53;;;;;;;6.97;4.80;;;;;;;;;;10319366;28;20742;-65
2021/05/30 23:04:50;;;;;;;12.77;5.33;;;;;;;;;;10323587;28;20080;-66
2021/05/30 23:09:48;;;;;;;6.47;3.77;;;;;;;;;;10316214;28;20708;-65
2021/05/30 23:14:45;;;;;;;9.73;4.70;;;;;;;;;;10322650;28;20367;-64
2021/05/30 23:19:43;;;;;;;6.67;4.87;;;;;;;;;;10313730;28;20057;-66
2021/05/30 23:24:40;;;;;;;8.10;5.20;;;;;;;;;;10316671;28;20503;-66
2021/05/30 23:29:37;;;;;;;8.07;5.13;;;;;;;;;;10315116;28;20714;-66
2021/05/30 23:34:35;;;;;;;13.27;5.73;;;;;;;;;;10325430;28;20396;-65
2021/05/30 23:39:32;;;;;;;14.17;6.20;;;;;;;;;;10320188;28;20032;-65
2021/05/30 23:44:30;;;;;;;6.70;2.83;;;;;;;;;;10325259;28;20041;-64
2021/05/30 23:49:27;;;;;;;7.47;5.03;;;;;;;;;;10315881;28;21588;-64
2021/05/30 23:54:25;;;;;;;10.80;4.80;;;;;;;;;;10324988;28;20037;-64
2021/05/30 23:59:22;;;;;;;6.53;3.33;;;;;;;;;;10304877;28;20037;-65
